Time;durP1;ratioP1;P1;durP2;ratioP2;P2;SDS_P1;SDS_P2;PMS_P1;PMS_P2;Temp;Humidity;BMP_temperature;BMP_pressure;BME280_temperature;BME280_humidity;BME280_pressure;Samples;Min_cycle;Max_cycle;Signal;HPM_P1;HPM_P2
2021/11/18 00:00:40;;;;;;;4.88;2.08;;;;;12.00;102406.00;;;;5029544;28;20204;-81
2021/11/18 00:03:10;;;;;;;3.05;1.52;;;;;12.00;102400.00;;;;5028197;28;20251;-81
2021/11/18 00:05:37;;;;;;;4.95;2.17;;;;;12.00;102410.00;;;;5028480;28;20670;-81
2021/11/18 00:08:06;;;;;;;4.22;2.28;;;;;11.90;102425.00;;;;5031735;28;20195;-81
2021/11/18 00:10:37;;;;;;;5.22;1.73;;;;;11.90;102431.00;;;;5030118;28;20196;-81
2021/11/18 00:13:07;;;;;;;2.60;1.40;;;;;11.90;102425.00;;;;5036899;28;20192;-81
2021/11/18 00:15:35;;;;;;;3.35;1.67;;;;;11.90;102429.00;;;;5034413;28;20199;-81
2021/11/18 00:18:04;;;;;;;3.42;1.58;;;;;11.90;102431.00;;;;5046720;28;20201;-81
2021/11/18 00:20:34;;;;;;;3.67;2.05;;;;;11.90;102434.00;;;;5045505;28;20673;-81
2021/11/18 00:23:02;;;;;;;3.58;1.55;;;;;11.80;102442.00;;;;5048597;28;20207;-81
2021/11/18 00:25:29;;;;;;;2.40;1.73;;;;;11.80;102446.00;;;;5046953;28;20227;-81
2021/11/18 00:27:58;;;;;;;3.58;1.83;;;;;11.80;102439.00;;;;5032238;28;20201;-81
2021/11/18 00:30:26;;;;;;;3.25;1.80;;;;;11.80;102441.00;;;;5031743;28;21528;-80
2021/11/18 00:32:54;;;;;;;2.60;1.48;;;;;11.80;102443.00;;;;5035603;28;20212;-81
2021/11/18 00:35:24;;;;;;;2.55;1.88;;;;;11.70;102442.00;;;;5047155;28;20200;-81
2021/11/18 00:37:51;;;;;;;6.60;2.08;;;;;11.70;102429.00;;;;5032343;28;20192;-81
2021/11/18 00:40:21;;;;;;;3.72;2.45;;;;;11.70;102429.00;;;;5032407;28;20200;-81
2021/11/18 00:42:48;;;;;;;4.70;2.15;;;;;11.70;102431.00;;;;5051269;28;20645;-81
2021/11/18 00:45:20;;;;;;;3.65;1.40;;;;;11.70;102420.00;;;;5046419;28;20720;-81
2021/11/18 00:47:47;;;;;;;4.20;1.75;;;;;11.70;102418.00;;;;5032271;28;20350;-81
2021/11/18 00:50:15;;;;;;;5.13;1.90;;;;;11.70;102415.00;;;;5039409;28;20215;-81
2021/11/18 00:52:42;;;;;;;3.25;1.75;;;;;11.60;102419.00;;;;5042658;28;20232;-80
2021/11/18 00:55:11;;;;;;;3.75;2.00;;;;;11.60;102417.00;;;;5031786;28;20200;-81
2021/11/18 00:57:39;;;;;;;2.88;1.70;;;;;11.60;102417.00;;;;5032466;28;20192;-81
2021/11/18 01:00:07;;;;;;;3.40;1.75;;;;;11.60;102412.00;;;;5031744;28;20208;-81
2021/11/18 01:02:36;;;;;;;3.65;1.77;;;;;11.60;102419.00;;;;5043470;28;20680;-81
2021/11/18 01:05:04;;;;;;;2.90;1.73;;;;;11.60;102423.00;;;;5030595;28;20694;-81
2021/11/18 01:07:31;;;;;;;2.88;1.65;;;;;11.60;102429.00;;;;5041056;28;20204;-81
2021/11/18 01:10:00;;;;;;;2.90;1.88;;;;;11.60;102421.00;;;;5051503;28;20200;-81
2021/11/18 01:12:27;;;;;;;3.67;1.80;;;;;11.60;102428.00;;;;5031716;28;20200;-81
2021/11/18 01:14:54;;;;;;;5.70;2.33;;;;;11.60;102431.00;;;;5031137;28;20650;-82
2021/11/18 01:17:22;;;;;;;2.80;2.00;;;;;11.60;102439.00;;;;5034132;28;20188;-81
2021/11/18 01:19:50;;;;;;;2.20;1.70;;;;;11.60;102446.00;;;;5031441;28;20196;-82
2021/11/18 01:22:19;;;;;;;4.15;2.03;;;;;11.60;102449.00;;;;5030758;28;20207;-81
2021/11/18 01:24:47;;;;;;;4.45;1.50;;;;;11.60;102447.00;;;;5033440;28;20238;-81
2021/11/18 01:27:14;;;;;;;2.90;1.65;;;;;11.60;102453.00;;;;5031425;28;20204;-81
2021/11/18 01:29:41;;;;;;;3.83;1.65;;;;;11.60;102462.00;;;;5030683;28;20204;-81
2021/11/18 01:32:09;;;;;;;5.22;2.08;;;;;11.60;102457.00;;;;5030765;28;20219;-81
2021/11/18 01:34:37;;;;;;;4.50;2.00;;;;;11.60;102466.00;;;;5038687;28;20571;-81
2021/11/18 01:37:05;;;;;;;2.53;1.60;;;;;11.60;102465.00;;;;5050325;28;20204;-81
2021/11/18 01:39:33;;;;;;;3.55;1.73;;;;;11.60;102472.00;;;;5035244;28;20192;-80
2021/11/18 01:42:00;;;;;;;6.22;2.05;;;;;11.60;102474.00;;;;5036454;28;20214;-81
2021/11/18 01:44:31;;;;;;;4.40;2.10;;;;;11.60;102468.00;;;;5030659;28;20228;-81
2021/11/18 01:46:59;;;;;;;5.35;3.00;;;;;11.60;102466.00;;;;5039102;28;20194;-81
2021/11/18 01:49:27;;;;;;;4.00;2.15;;;;;11.60;102465.00;;;;5030923;28;20982;-81
2021/11/18 01:51:56;;;;;;;5.40;2.05;;;;;11.60;102465.00;;;;5031221;28;20224;-81
2021/11/18 01:54:27;;;;;;;2.85;1.77;;;;;11.60;102472.00;;;;5030185;28;20251;-81
2021/11/18 01:56:55;;;;;;;3.03;1.73;;;;;11.60;102469.00;;;;5030359;28;20220;-81
2021/11/18 01:59:25;;;;;;;4.93;1.90;;;;;11.60;102460.00;;;;5034202;28;20207;-81
2021/11/18 02:01:55;;;;;;;2.65;1.88;;;;;11.60;102460.00;;;;5046349;28;20193;-81
2021/11/18 02:04:24;;;;;;;2.53;1.80;;;;;11.50;102455.00;;;;5030103;28;20220;-81
2021/11/18 02:06:54;;;;;;;3.17;2.00;;;;;11.50;102458.00;;;;5046422;28;20199;-81
2021/11/18 02:09:25;;;;;;;3.95;2.00;;;;;11.50;102464.00;;;;5046263;28;20191;-81
2021/11/18 02:11:54;;;;;;;3.05;2.00;;;;;11.50;102458.00;;;;5033558;28;20197;-81
2021/11/18 02:14:24;;;;;;;4.07;2.25;;;;;11.50;102460.00;;;;5035234;28;20189;-81
2021/11/18 02:16:54;;;;;;;4.38;1.75;;;;;11.50;102476.00;;;;5029678;28;20201;-81
2021/11/18 02:19:22;;;;;;;3.78;1.80;;;;;11.60;102473.00;;;;5042062;28;20571;-81
2021/11/18 02:21:52;;;;;;;3.78;2.05;;;;;11.60;102478.00;;;;5036189;28;20204;-81
2021/11/18 02:24:23;;;;;;;3.55;2.40;;;;;11.60;102480.00;;;;5031069;28;20590;-81
2021/11/18 02:26:51;;;;;;;4.22;1.80;;;;;11.60;102479.00;;;;5029917;28;20203;-81
2021/11/18 02:29:20;;;;;;;3.13;1.85;;;;;11.60;102476.00;;;;5030069;28;20612;-81
2021/11/18 02:31:50;;;;;;;3.25;1.98;;;;;11.60;102470.00;;;;5030852;28;20216;-81
2021/11/18 02:34:20;;;;;;;3.90;1.92;;;;;11.70;102467.00;;;;5029024;28;20205;-81
2021/11/18 02:36:48;;;;;;;4.65;2.03;;;;;11.70;102475.00;;;;5029456;28;20204;-81
2021/11/18 02:39:17;;;;;;;7.45;2.40;;;;;11.70;102477.00;;;;5046364;28;20199;-81
2021/11/18 02:41:45;;;;;;;4.00;1.90;;;;;11.80;102477.00;;;;5046554;28;20207;-81
2021/11/18 02:44:12;;;;;;;3.88;2.20;;;;;11.80;102468.00;;;;5031746;28;20247;-81
2021/11/18 02:46:39;;;;;;;3.13;1.77;;;;;11.80;102463.00;;;;5034753;28;20689;-81
2021/11/18 02:49:07;;;;;;;3.78;2.30;;;;;11.90;102472.00;;;;5035814;28;20676;-81
2021/11/18 02:51:35;;;;;;;4.28;2.17;;;;;11.90;102462.00;;;;5030347;28;20718;-81
2021/11/18 02:54:04;;;;;;;3.30;2.00;;;;;12.00;102462.00;;;;5040957;28;20196;-81
2021/11/18 02:56:32;;;;;;;6.57;2.30;;;;;12.00;102463.00;;;;5048124;28;20662;-81
2021/11/18 02:59:00;;;;;;;3.90;1.98;;;;;12.00;102455.00;;;;5037502;28;20196;-81
2021/11/18 03:01:30;;;;;;;4.90;2.78;;;;;12.10;102459.00;;;;5028669;28;20204;-81
2021/11/18 03:03:59;;;;;;;6.60;2.20;;;;;12.20;102458.00;;;;5029630;28;20224;-81
2021/11/18 03:06:27;;;;;;;3.08;1.95;;;;;12.20;102458.00;;;;5038155;28;20211;-81
2021/11/18 03:08:54;;;;;;;5.35;2.28;;;;;12.30;102458.00;;;;5034266;28;20200;-81
2021/11/18 03:11:24;;;;;;;5.43;3.10;;;;;12.30;102468.00;;;;5029154;28;20196;-81
2021/11/18 03:13:53;;;;;;;5.40;2.50;;;;;12.30;102474.00;;;;5029231;28;20192;-81
2021/11/18 03:16:22;;;;;;;3.63;2.10;;;;;12.40;102481.00;;;;5029128;28;20196;-82
2021/11/18 03:18:49;;;;;;;7.40;2.88;;;;;12.50;102476.00;;;;5029368;28;20204;-81
2021/11/18 03:21:20;;;;;;;4.47;2.63;;;;;12.50;102471.00;;;;5029027;28;20193;-81
2021/11/18 03:23:48;;;;;;;5.90;1.95;;;;;12.60;102478.00;;;;5037221;28;20219;-82
2021/11/18 03:26:19;;;;;;;7.18;2.72;;;;;12.60;102473.00;;;;5033097;28;20207;-81
2021/11/18 03:28:47;;;;;;;7.45;2.60;;;;;12.60;102480.00;;;;5028996;28;20196;-81
2021/11/18 03:31:17;;;;;;;4.30;2.22;;;;;12.60;102470.00;;;;5028794;28;20270;-81
2021/11/18 03:33:47;;;;;;;4.72;2.50;;;;;12.70;102477.00;;;;5029407;28;20251;-81
2021/11/18 03:36:15;;;;;;;5.57;2.33;;;;;12.70;102469.00;;;;5029256;28;20189;-81
2021/11/18 03:38:43;;;;;;;5.28;2.53;;;;;12.80;102476.00;;;;5035861;28;20210;-81
2021/11/18 03:41:12;;;;;;;5.32;2.33;;;;;12.80;102479.00;;;;5033013;28;20570;-81
2021/11/18 03:43:43;;;;;;;4.68;2.30;;;;;12.90;102480.00;;;;5028180;28;20196;-81
2021/11/18 03:46:12;;;;;;;7.93;2.25;;;;;12.90;102477.00;;;;5029957;28;20593;-81
2021/11/18 03:48:40;;;;;;;3.67;2.05;;;;;12.90;102472.00;;;;5032388;28;20216;-81
2021/11/18 03:51:10;;;;;;;5.88;2.80;;;;;13.00;102475.00;;;;5032747;28;20243;-81
2021/11/18 03:53:39;;;;;;;5.78;2.35;;;;;13.00;102475.00;;;;5032134;28;20196;-81
2021/11/18 03:56:08;;;;;;;6.07;2.38;;;;;13.10;102472.00;;;;5032378;28;20571;-82
2021/11/18 03:58:35;;;;;;;6.65;2.80;;;;;13.10;102476.00;;;;5033968;28;20204;-81
2021/11/18 04:01:03;;;;;;;7.95;2.85;;;;;13.10;102478.00;;;;5033347;28;20199;-82
2021/11/18 04:03:30;;;;;;;5.45;2.72;;;;;13.20;102479.00;;;;5033091;28;20208;-81
2021/11/18 04:06:01;;;;;;;3.72;2.22;;;;;13.20;102483.00;;;;5032214;28;20220;-81
2021/11/18 04:08:28;;;;;;;3.75;2.05;;;;;13.20;102474.00;;;;5032091;28;20250;-81
2021/11/18 04:10:56;;;;;;;6.03;2.42;;;;;13.30;102476.00;;;;5032376;28;20641;-81
2021/11/18 04:13:24;;;;;;;3.78;1.95;;;;;13.30;102475.00;;;;5032166;28;20192;-81
2021/11/18 04:15:51;;;;;;;6.32;3.08;;;;;13.30;102486.00;;;;5031718;28;20670;-81
2021/11/18 04:18:19;;;;;;;6.18;2.67;;;;;13.40;102485.00;;;;5031844;28;20210;-81
2021/11/18 04:20:48;;;;;;;5.55;3.20;;;;;13.40;102473.00;;;;5040386;28;20208;-81
2021/11/18 04:23:17;;;;;;;5.55;2.13;;;;;13.40;102476.00;;;;5039285;28;20216;-81
2021/11/18 04:25:45;;;;;;;4.40;1.98;;;;;13.40;102477.00;;;;5031684;28;20221;-81
2021/11/18 04:28:13;;;;;;;8.32;2.30;;;;;13.40;102468.00;;;;5031962;28;20254;-81
2021/11/18 04:30:43;;;;;;;3.40;2.00;;;;;13.40;102471.00;;;;5035045;28;20655;-81
2021/11/18 04:33:11;;;;;;;3.95;2.00;;;;;13.40;102471.00;;;;5042090;28;20196;-81
2021/11/18 04:35:38;;;;;;;4.75;2.30;;;;;13.40;102477.00;;;;5035157;28;20508;-81
2021/11/18 04:38:06;;;;;;;4.15;2.65;;;;;13.40;102471.00;;;;5044965;28;20204;-82
2021/11/18 04:40:36;;;;;;;10.20;2.63;;;;;13.40;102473.00;;;;5051447;28;20195;-81
2021/11/18 04:43:05;;;;;;;6.10;2.60;;;;;13.40;102473.00;;;;5043188;28;20204;-82
2021/11/18 04:45:34;;;;;;;6.82;2.80;;;;;13.40;102465.00;;;;5035442;28;20247;-81
2021/11/18 04:48:01;;;;;;;4.50;2.25;;;;;13.40;102465.00;;;;5038007;28;20230;-81
2021/11/18 04:50:29;;;;;;;6.78;2.58;;;;;13.40;102464.00;;;;5036522;28;20207;-82
2021/11/18 04:52:56;;;;;;;6.97;2.13;;;;;13.40;102450.00;;;;5045685;28;20204;-82
2021/11/18 04:55:26;;;;;;;8.57;2.25;;;;;13.30;102453.00;;;;5036637;28;20226;-82
2021/11/18 04:57:55;;;;;;;8.07;2.53;;;;;13.30;102451.00;;;;5031861;28;20204;-82
2021/11/18 05:00:26;;;;;;;5.05;2.53;;;;;13.30;102452.00;;;;5031483;28;20192;-81
2021/11/18 05:02:53;;;;;;;5.00;2.38;;;;;13.30;102450.00;;;;5032009;28;20223;-82
2021/11/18 05:05:23;;;;;;;7.97;2.80;;;;;13.30;102450.00;;;;5031959;28;20228;-81
2021/11/18 05:07:50;;;;;;;5.85;2.45;;;;;13.30;102463.00;;;;5031190;28;20757;-81
2021/11/18 05:10:19;;;;;;;6.47;2.30;;;;;13.30;102461.00;;;;5030658;28;20207;-81
2021/11/18 05:12:47;;;;;;;6.00;2.45;;;;;13.30;102455.00;;;;5036560;28;20207;-82
2021/11/18 05:15:21;;;;;;;3.65;2.35;;;;;13.20;102461.00;;;;5034843;28;20549;-81
2021/11/18 05:17:49;;;;;;;8.90;2.83;;;;;13.30;102462.00;;;;5037231;28;20208;-81
2021/11/18 05:20:18;;;;;;;4.13;2.50;;;;;13.30;102460.00;;;;5038358;28;20200;-81
2021/11/18 05:22:47;;;;;;;5.30;2.78;;;;;13.30;102455.00;;;;5036190;28;20192;-80
2021/11/18 05:25:15;;;;;;;5.07;2.45;;;;;13.30;102468.00;;;;5036182;28;20224;-81
2021/11/18 05:27:43;;;;;;;6.53;2.63;;;;;13.40;102474.00;;;;5040596;28;20200;-81
2021/11/18 05:30:12;;;;;;;8.50;3.50;;;;;13.40;102479.00;;;;5032291;28;20223;-81
2021/11/18 05:32:41;;;;;;;7.57;3.13;;;;;13.40;102475.00;;;;5042564;28;20200;-81
2021/11/18 05:35:09;;;;;;;6.38;2.60;;;;;13.40;102467.00;;;;5030621;28;20244;-81
2021/11/18 05:37:36;;;;;;;6.22;2.63;;;;;13.40;102463.00;;;;5033117;28;20591;-82
2021/11/18 05:40:04;;;;;;;5.32;2.60;;;;;13.50;102463.00;;;;5036180;28;20573;-82
2021/11/18 05:42:32;;;;;;;7.05;3.33;;;;;13.50;102463.00;;;;5037874;28;20295;-82
2021/11/18 05:44:59;;;;;;;4.97;2.72;;;;;13.50;102469.00;;;;5038763;28;20235;-82
2021/11/18 05:47:27;;;;;;;4.80;2.97;;;;;13.50;102462.00;;;;5043945;28;20215;-82
2021/11/18 05:49:55;;;;;;;6.85;2.67;;;;;13.50;102468.00;;;;5038148;28;20726;-81
2021/11/18 05:52:23;;;;;;;4.93;2.83;;;;;13.50;102476.00;;;;5035416;28;20277;-82
2021/11/18 05:54:50;;;;;;;8.43;3.47;;;;;13.60;102464.00;;;;5040416;28;20200;-82
2021/11/18 05:57:17;;;;;;;8.77;2.90;;;;;13.60;102464.00;;;;5039963;28;20232;-82
2021/11/18 05:59:45;;;;;;;9.63;3.67;;;;;13.60;102463.00;;;;5037952;28;20191;-82
2021/11/18 06:02:12;;;;;;;8.13;3.25;;;;;13.60;102466.00;;;;5042768;28;20192;-82
2021/11/18 06:04:40;;;;;;;6.53;3.13;;;;;13.60;102468.00;;;;5037746;28;20263;-82
2021/11/18 06:07:09;;;;;;;9.90;3.08;;;;;13.70;102471.00;;;;5036512;28;20184;-82
2021/11/18 06:09:37;;;;;;;8.02;3.15;;;;;13.70;102471.00;;;;5032347;28;20196;-82
2021/11/18 06:12:05;;;;;;;7.97;2.97;;;;;13.70;102471.00;;;;5040198;28;20273;-81
2021/11/18 06:14:32;;;;;;;7.85;3.67;;;;;13.80;102478.00;;;;5037089;28;20216;-82
2021/11/18 06:17:00;;;;;;;6.72;2.97;;;;;13.80;102485.00;;;;5038370;28;20312;-83
2021/11/18 06:19:27;;;;;;;7.90;3.20;;;;;13.80;102501.00;;;;5040860;28;20204;-83
2021/11/18 06:21:55;;;;;;;6.55;3.28;;;;;13.80;102494.00;;;;5036337;28;20731;-83
2021/11/18 06:24:25;;;;;;;9.75;3.20;;;;;13.80;102493.00;;;;5040693;28;20636;-82
2021/11/18 06:26:55;;;;;;;8.25;3.50;;;;;13.80;102487.00;;;;5037683;28;20226;-80
2021/11/18 06:29:23;;;;;;;7.45;3.92;;;;;13.90;102490.00;;;;5039828;28;20204;-81
2021/11/18 06:31:51;;;;;;;7.78;3.38;;;;;13.90;102476.00;;;;5029332;28;20196;-80
2021/11/18 06:34:19;;;;;;;8.20;3.28;;;;;13.90;102480.00;;;;5039651;28;20203;-80
2021/11/18 06:36:47;;;;;;;10.45;3.92;;;;;13.90;102472.00;;;;5047595;28;20199;-81
2021/11/18 06:39:15;;;;;;;10.38;3.15;;;;;13.90;102479.00;;;;5047771;28;20242;-82
2021/11/18 06:41:44;;;;;;;9.52;3.58;;;;;13.90;102480.00;;;;5045499;28;20192;-81
2021/11/18 06:44:12;;;;;;;8.10;3.38;;;;;13.90;102488.00;;;;5032185;28;20204;-83
2021/11/18 06:46:40;;;;;;;5.47;3.17;;;;;13.90;102500.00;;;;5042296;28;20215;-82
2021/11/18 06:49:09;;;;;;;4.78;2.72;;;;;13.90;102496.00;;;;5048458;28;20204;-80
2021/11/18 06:51:41;;;;;;;8.07;2.85;;;;;13.90;102491.00;;;;5034439;28;20228;-81
2021/11/18 06:54:09;;;;;;;7.43;3.15;;;;;13.90;102500.00;;;;5028781;28;20208;-80
2021/11/18 06:56:36;;;;;;;6.25;2.70;;;;;13.90;102497.00;;;;5044116;28;20214;-80
2021/11/18 06:59:05;;;;;;;8.30;3.40;;;;;13.90;102507.00;;;;5037978;28;20192;-79
2021/11/18 07:01:33;;;;;;;8.05;3.15;;;;;13.90;102511.00;;;;5043728;28;20209;-79
2021/11/18 07:04:00;;;;;;;6.85;3.67;;;;;13.90;102518.00;;;;5041619;28;20270;-80
2021/11/18 07:06:29;;;;;;;6.25;2.78;;;;;13.90;102519.00;;;;5033421;28;20601;-80
2021/11/18 07:08:57;;;;;;;5.32;2.60;;;;;13.90;102526.00;;;;5046457;28;20632;-80
2021/11/18 07:11:25;;;;;;;9.57;3.60;;;;;13.90;102532.00;;;;5045377;28;20214;-82
2021/11/18 07:13:53;;;;;;;8.93;3.67;;;;;13.80;102534.00;;;;5047379;28;20206;-81
2021/11/18 07:16:24;;;;;;;7.13;2.90;;;;;13.80;102535.00;;;;5047209;28;20203;-81
2021/11/18 07:18:52;;;;;;;6.53;2.85;;;;;13.80;102534.00;;;;5031846;28;20204;-81
2021/11/18 07:21:22;;;;;;;7.45;3.10;;;;;13.80;102532.00;;;;5045052;28;20207;-81
2021/11/18 07:23:50;;;;;;;6.30;2.53;;;;;13.80;102535.00;;;;5048264;28;20246;-81
2021/11/18 07:26:18;;;;;;;12.20;3.05;;;;;13.90;102543.00;;;;5030238;28;20278;-81
2021/11/18 07:28:45;;;;;;;11.50;3.65;;;;;13.80;102540.00;;;;5036946;28;20204;-80
2021/11/18 07:31:13;;;;;;;6.15;3.03;;;;;13.80;102544.00;;;;5048420;28;20203;-81
2021/11/18 07:33:43;;;;;;;6.20;3.08;;;;;13.80;102544.00;;;;5039707;28;20199;-80
2021/11/18 07:36:10;;;;;;;5.97;2.53;;;;;13.90;102543.00;;;;5039857;28;20685;-80
2021/11/18 07:38:39;;;;;;;5.05;2.95;;;;;13.90;102541.00;;;;5035146;28;20200;-81
2021/11/18 07:41:08;;;;;;;5.88;2.65;;;;;13.80;102547.00;;;;5044645;28;20306;-80
2021/11/18 07:43:39;;;;;;;10.40;3.20;;;;;13.80;102561.00;;;;5044960;28;20199;-80
2021/11/18 07:46:07;;;;;;;7.72;3.15;;;;;13.90;102561.00;;;;5043717;28;20274;-80
2021/11/18 07:48:34;;;;;;;4.85;3.08;;;;;13.90;102552.00;;;;5034095;28;20568;-80
2021/11/18 07:51:05;;;;;;;7.97;3.15;;;;;13.90;102555.00;;;;5043862;28;20235;-80
2021/11/18 07:53:33;;;;;;;9.73;2.95;;;;;13.90;102559.00;;;;5032857;28;20200;-81
2021/11/18 07:56:01;;;;;;;7.30;3.13;;;;;13.90;102552.00;;;;5032238;28;20219;-81
2021/11/18 07:58:29;;;;;;;7.43;3.55;;;;;13.90;102549.00;;;;5034908;28;20658;-81
2021/11/18 08:00:57;;;;;;;6.43;2.90;;;;;13.90;102550.00;;;;5030044;28;20196;-81
2021/11/18 08:03:25;;;;;;;5.95;3.05;;;;;13.90;102564.00;;;;5030929;28;20690;-80
2021/11/18 08:05:52;;;;;;;7.60;3.55;;;;;13.90;102546.00;;;;5037715;28;20589;-81
2021/11/18 08:08:21;;;;;;;7.10;3.28;;;;;13.90;102548.00;;;;5033117;28;20188;-81
2021/11/18 08:10:48;;;;;;;10.00;3.20;;;;;13.90;102553.00;;;;5027348;28;20204;-80
2021/11/18 08:13:15;;;;;;;9.02;4.15;;;;;13.90;102559.00;;;;5036458;28;20208;-80
2021/11/18 08:15:43;;;;;;;7.45;3.33;;;;;14.00;102547.00;;;;5041789;28;20200;-80
2021/11/18 08:18:10;;;;;;;10.13;2.88;;;;;14.00;102545.00;;;;5035967;28;20202;-80
2021/11/18 08:20:37;;;;;;;5.05;2.50;;;;;14.00;102536.00;;;;5038388;28;20208;-79
2021/11/18 08:23:05;;;;;;;10.30;3.30;;;;;14.00;102525.00;;;;5036012;28;20199;-80
2021/11/18 08:25:35;;;;;;;10.15;3.55;;;;;14.00;102518.00;;;;5037165;28;20203;-80
2021/11/18 08:28:04;;;;;;;9.75;4.13;;;;;14.00;102530.00;;;;5043003;28;20200;-80
2021/11/18 08:30:33;;;;;;;7.28;3.35;;;;;14.00;102535.00;;;;5037975;28;20230;-80
2021/11/18 08:33:04;;;;;;;5.18;2.85;;;;;14.00;102543.00;;;;5028583;28;20227;-80
2021/11/18 08:35:34;;;;;;;5.20;2.78;;;;;14.00;102555.00;;;;5032090;28;20525;-80
2021/11/18 08:38:03;;;;;;;7.70;3.30;;;;;14.10;102549.00;;;;5035712;28;20208;-79
2021/11/18 08:40:33;;;;;;;9.63;3.45;;;;;14.10;102547.00;;;;5043239;28;20198;-80
2021/11/18 08:43:01;;;;;;;11.02;4.00;;;;;14.10;102544.00;;;;5044131;28;20196;-79
2021/11/18 08:45:29;;;;;;;6.72;3.45;;;;;14.20;102540.00;;;;5041680;28;20204;-79
2021/11/18 08:47:56;;;;;;;6.97;3.67;;;;;14.20;102547.00;;;;5035252;28;20203;-80
2021/11/18 08:50:24;;;;;;;11.48;3.85;;;;;14.20;102544.00;;;;5038997;28;20204;-80
2021/11/18 08:52:52;;;;;;;7.60;3.63;;;;;14.20;102538.00;;;;5037258;28;20231;-80
2021/11/18 08:55:23;;;;;;;8.77;4.15;;;;;14.20;102545.00;;;;5039790;28;20200;-80
2021/11/18 08:57:52;;;;;;;10.10;3.90;;;;;14.30;102547.00;;;;5042034;28;20207;-79
2021/11/18 09:00:23;;;;;;;8.02;3.67;;;;;14.30;102552.00;;;;5036899;28;20211;-80
2021/11/18 09:02:51;;;;;;;6.55;3.15;;;;;14.40;102548.00;;;;5043993;28;20610;-79
2021/11/18 09:05:20;;;;;;;9.00;4.00;;;;;14.40;102552.00;;;;5037733;28;20201;-80
2021/11/18 09:07:47;;;;;;;8.43;3.83;;;;;14.40;102550.00;;;;5037334;28;20236;-80
2021/11/18 09:10:15;;;;;;;10.98;4.40;;;;;14.50;102557.00;;;;5050895;28;20222;-80
2021/11/18 09:12:44;;;;;;;7.22;3.65;;;;;14.50;102561.00;;;;5045690;28;20191;-81
2021/11/18 09:15:15;;;;;;;8.32;3.58;;;;;14.50;102559.00;;;;5048201;28;20200;-80
2021/11/18 09:17:42;;;;;;;6.47;3.20;;;;;14.60;102553.00;;;;5039070;28;20207;-81
2021/11/18 09:20:13;;;;;;;7.47;3.65;;;;;14.60;102574.00;;;;5042988;28;20200;-81
2021/11/18 09:22:42;;;;;;;7.57;3.90;;;;;14.70;102574.00;;;;5038219;28;20199;-80
2021/11/18 09:25:12;;;;;;;10.10;4.32;;;;;14.70;102567.00;;;;5045451;28;20212;-79
2021/11/18 09:27:41;;;;;;;10.38;3.92;;;;;14.80;102559.00;;;;5045838;28;20219;-81
2021/11/18 09:30:13;;;;;;;9.35;3.70;;;;;14.80;102553.00;;;;5037923;28;20199;-79
2021/11/18 09:32:40;;;;;;;13.43;4.55;;;;;14.90;102573.00;;;;5031592;28;20200;-81
2021/11/18 09:35:12;;;;;;;11.32;4.22;;;;;14.90;102575.00;;;;5040897;28;20571;-80
2021/11/18 09:37:39;;;;;;;11.75;4.35;;;;;15.00;102571.00;;;;5043106;28;20588;-81
2021/11/18 09:40:10;;;;;;;9.85;4.25;;;;;15.00;102591.00;;;;5046025;28;20191;-80
2021/11/18 09:42:56;;;;;;;8.88;4.35;;;;;15.10;102593.00;;;;5045616;28;20215;-81
2021/11/18 09:45:27;;;;;;;8.05;3.67;;;;;15.20;102589.00;;;;5048493;28;20196;-80
2021/11/18 09:48:27;;;;;;;9.68;3.90;;;;;15.10;102589.00;;;;5039273;28;20227;-80
2021/11/18 09:51:00;;;;;;;9.38;3.88;;;;;15.30;102582.00;;;;5039414;28;20227;-81
2021/11/18 09:53:37;;;;;;;12.32;4.47;;;;;15.30;102575.00;;;;5049211;28;20207;-81
2021/11/18 09:56:12;;;;;;;8.50;3.55;;;;;15.40;102590.00;;;;5048896;28;20196;-82
2021/11/18 09:58:54;;;;;;;12.23;4.55;;;;;15.40;102589.00;;;;5046673;28;20209;-81
2021/11/18 10:02:00;;;;;;;10.00;3.92;;;;;15.40;102589.00;;;;5034411;28;20308;-80
2021/11/18 10:04:36;;;;;;;10.25;3.90;;;;;15.50;102586.00;;;;5036917;28;20617;-80
2021/11/18 10:07:10;;;;;;;12.75;4.03;;;;;15.60;102587.00;;;;5048568;28;20756;-81
2021/11/18 10:09:45;;;;;;;10.38;5.13;;;;;15.60;102585.00;;;;5031372;28;20196;-81
2021/11/18 10:12:23;;;;;;;9.23;4.55;;;;;15.70;102596.00;;;;5043079;28;20203;-81
2021/11/18 10:14:56;;;;;;;7.22;3.55;;;;;15.80;102589.00;;;;5036766;28;20580;-81
2021/11/18 10:17:29;;;;;;;8.50;4.28;;;;;15.80;102591.00;;;;5030096;28;20342;-81
2021/11/18 10:20:01;;;;;;;17.10;5.15;;;;;15.90;102589.00;;;;5029957;28;20303;-81
2021/11/18 10:22:31;;;;;;;10.00;4.85;;;;;16.00;102593.00;;;;5030251;28;20209;-81
2021/11/18 10:25:00;;;;;;;11.05;4.65;;;;;16.00;102586.00;;;;5039002;28;20227;-81
2021/11/18 10:27:30;;;;;;;9.30;4.20;;;;;16.10;102592.00;;;;5031134;28;20231;-81
2021/11/18 10:30:14;;;;;;;12.15;4.43;;;;;16.10;102596.00;;;;5049687;28;20210;-81
2021/11/18 10:32:51;;;;;;;11.15;4.05;;;;;16.20;102587.00;;;;5045517;28;20769;-80
2021/11/18 10:35:25;;;;;;;11.88;4.75;;;;;16.20;102589.00;;;;5038534;28;20191;-81
2021/11/18 10:38:10;;;;;;;8.68;3.85;;;;;16.30;102584.00;;;;5036735;28;20202;-81
2021/11/18 10:40:49;;;;;;;12.48;3.78;;;;;16.40;102589.00;;;;5039023;28;20203;-81
2021/11/18 10:43:17;;;;;;;9.95;3.25;;;;;16.40;102585.00;;;;5040620;28;20189;-81
2021/11/18 10:45:47;;;;;;;10.05;4.10;;;;;16.40;102575.00;;;;5034756;28;20196;-81
2021/11/18 10:48:20;;;;;;;8.88;3.90;;;;;16.50;102571.00;;;;5048781;28;20227;-81
2021/11/18 10:50:52;;;;;;;11.00;4.45;;;;;16.50;102572.00;;;;5034003;28;20581;-82
2021/11/18 10:53:22;;;;;;;6.78;3.72;;;;;16.60;102577.00;;;;5041391;28;20192;-81
2021/11/18 10:55:51;;;;;;;10.85;3.92;;;;;16.60;102576.00;;;;5048886;28;20211;-82
2021/11/18 10:58:33;;;;;;;9.57;3.30;;;;;16.60;102577.00;;;;5048025;28;20199;-81
2021/11/18 11:01:04;;;;;;;7.68;3.30;;;;;16.70;102577.00;;;;5029662;28;20644;-81
2021/11/18 11:03:40;;;;;;;7.55;3.22;;;;;16.70;102564.00;;;;5039694;28;20200;-81
2021/11/18 11:06:15;;;;;;;9.07;3.70;;;;;16.80;102568.00;;;;5040196;28;20203;-80
2021/11/18 11:08:45;;;;;;;17.65;4.45;;;;;16.80;102563.00;;;;5045235;28;20202;-81
2021/11/18 11:11:27;;;;;;;9.25;3.88;;;;;16.80;102564.00;;;;5046270;28;20204;-81
2021/11/18 11:14:17;;;;;;;7.25;3.88;;;;;16.80;102567.00;;;;5036171;28;20279;-83
2021/11/18 11:17:05;;;;;;;11.55;4.82;;;;;16.90;102555.00;;;;5037434;28;20682;-82
2021/11/18 11:19:42;;;;;;;13.23;4.82;;;;;17.00;102552.00;;;;5045507;28;20206;-82
2021/11/18 11:22:16;;;;;;;14.63;4.68;;;;;17.10;102547.00;;;;5044436;28;20191;-81
2021/11/18 11:25:08;;;;;;;8.02;4.00;;;;;17.10;102546.00;;;;5049031;28;20227;-82
2021/11/18 11:28:02;;;;;;;9.05;4.05;;;;;17.10;102538.00;;;;5036026;28;20227;-82
2021/11/18 11:30:34;;;;;;;9.40;3.28;;;;;17.20;102550.00;;;;5029075;28;20200;-81
2021/11/18 11:33:07;;;;;;;7.68;4.35;;;;;17.30;102538.00;;;;5028354;28;20195;-83
2021/11/18 11:35:46;;;;;;;10.80;4.97;;;;;17.20;102534.00;;;;5028912;28;20204;-82
2021/11/18 11:38:39;;;;;;;11.63;3.75;;;;;17.20;102539.00;;;;5028415;28;20204;-80
2021/11/18 11:41:33;;;;;;;12.05;4.30;;;;;17.30;102541.00;;;;5039686;28;20591;-80
2021/11/18 11:44:09;;;;;;;10.75;2.92;;;;;17.40;102539.00;;;;5045325;28;20218;-81
2021/11/18 11:46:47;;;;;;;16.55;4.25;;;;;17.40;102545.00;;;;5031459;28;20203;-81
2021/11/18 11:49:26;;;;;;;10.55;3.35;;;;;17.40;102542.00;;;;5030019;28;21007;-81
2021/11/18 11:52:12;;;;;;;7.03;3.97;;;;;17.40;102537.00;;;;5043158;28;20227;-80
2021/11/18 11:54:55;;;;;;;15.20;4.25;;;;;17.40;102527.00;;;;5038600;28;20199;-80
2021/11/18 11:57:36;;;;;;;10.88;3.60;;;;;17.50;102535.00;;;;5043039;28;20272;-81
2021/11/18 12:00:16;;;;;;;9.30;3.78;;;;;17.50;102527.00;;;;5035071;28;20233;-81
2021/11/18 12:02:56;;;;;;;9.77;3.80;;;;;17.60;102520.00;;;;5033966;28;20200;-79
2021/11/18 12:05:28;;;;;;;11.63;3.92;;;;;17.70;102526.00;;;;5039096;28;20708;-80
2021/11/18 12:08:06;;;;;;;9.38;4.03;;;;;17.70;102530.00;;;;5037121;28;20231;-80
2021/11/18 12:10:43;;;;;;;10.73;3.65;;;;;17.70;102519.00;;;;5042535;28;20198;-80
2021/11/18 12:13:23;;;;;;;7.55;3.35;;;;;17.70;102524.00;;;;5043666;28;20651;-81
2021/11/18 12:15:53;;;;;;;7.22;3.20;;;;;17.80;102516.00;;;;5038241;28;20207;-80
2021/11/18 12:18:28;;;;;;;11.93;3.42;;;;;17.90;102514.00;;;;5043314;28;20196;-80
2021/11/18 12:20:57;;;;;;;9.80;3.65;;;;;17.90;102507.00;;;;5051070;28;20211;-80